
Distance (Route):
Temperature : 21.8°C
Humidity : 55.9%
Pressure : 0hPa| Receiver | Frames | First received | Last received |
|---|---|---|---|
| LZ4TU-5 | 142 | 2026-09-02 06:52:50 | 2026-09-02 07:52:08 |
| Receiver | Date | Latitude | Longitude | Direction | Speed | Altitude | Climb | Temperature | Humidity | Pressure | Voltage | Killtimer | Uptime | BKT | XDATA |
|---|---|---|---|---|---|---|---|---|---|---|---|---|---|---|---|
| LZ4TU-5 | 2026-09-02 07:52:08 | 44.25205 | 23.46469 | 273° | 9km/h | 564m | -11.2m/s | 21.8°C | 55.9% | 0hPa | 0V | 00:00:00 | 00:00:00 | 00:00:00 | |
| LZ4TU-5 | 2026-09-02 07:52:03 | 44.25206 | 23.46486 | 254° | 9km/h | 625m | -12.0m/s | 21.3°C | 57.4% | 0hPa | 0V | 00:00:00 | 00:00:00 | 00:00:00 | |
| LZ4TU-5 | 2026-09-02 07:51:58 | 44.25209 | 23.46503 | 250° | 9km/h | 687m | -12.2m/s | 20.7°C | 59.2% | 0hPa | 0V | 00:00:00 | 00:00:00 | 00:00:00 | |
| LZ4TU-5 | 2026-09-02 07:51:54 | 44.25213 | 23.46515 | 239° | 9km/h | 739m | -12.7m/s | 20.2°C | 60.2% | 0hPa | 0V | 00:00:00 | 00:00:00 | 00:00:00 | |
| LZ4TU-5 | 2026-09-02 07:51:50 | 44.25217 | 23.46525 | 236° | 7km/h | 791m | -12.8m/s | 19.7°C | 60.8% | 0hPa | 0V | 00:00:00 | 00:00:00 | 00:00:00 | |
| LZ4TU-5 | 2026-09-02 07:51:46 | 44.25223 | 23.46532 | 227° | 7km/h | 841m | -11.6m/s | 19.3°C | 60.6% | 0hPa | 0V | 00:00:00 | 00:00:00 | 00:00:00 | |
| LZ4TU-5 | 2026-09-02 07:51:41 | 44.25232 | 23.46540 | 204° | 9km/h | 902m | -11.5m/s | 18.7°C | 59.3% | 0hPa | 0V | 00:00:00 | 00:00:00 | 00:00:00 | |
| LZ4TU-5 | 2026-09-02 07:51:37 | 44.25243 | 23.46544 | 183° | 13km/h | 949m | -11.2m/s | 18.6°C | 57.1% | 0hPa | 0V | 00:00:00 | 00:00:00 | 00:00:00 | |
| LZ4TU-5 | 2026-09-02 07:51:32 | 44.25266 | 23.46550 | 172° | 20km/h | 995m | -11.4m/s | 19.8°C | 51.9% | 0hPa | 0V | 00:00:00 | 00:00:00 | 00:00:00 | |
| LZ4TU-5 | 2026-09-02 07:51:28 | 44.25286 | 23.46546 | 171° | 22km/h | 1042m | -11.7m/s | 20.2°C | 51.6% | 0hPa | 0V | 00:00:00 | 00:00:00 | 00:00:00 | |
| LZ4TU-5 | 2026-09-02 07:51:23 | 44.25314 | 23.46537 | 166° | 22km/h | 1102m | -11.0m/s | 20.0°C | 47.9% | 0hPa | 0V | 00:00:00 | 00:00:00 | 00:00:00 | |
| LZ4TU-5 | 2026-09-02 07:51:18 | 44.25342 | 23.46524 | 160° | 22km/h | 1160m | -11.1m/s | 19.6°C | 47.2% | 0hPa | 0V | 00:00:00 | 00:00:00 | 00:00:00 | |
| LZ4TU-5 | 2026-09-02 07:51:14 | 44.25362 | 23.46513 | 157° | 22km/h | 1208m | -11.4m/s | 19.3°C | 45.6% | 0hPa | 0V | 00:00:00 | 00:00:00 | 00:00:00 | |
| LZ4TU-5 | 2026-09-02 07:51:09 | 44.25387 | 23.46496 | 155° | 24km/h | 1267m | -11.5m/s | 18.7°C | 45.8% | 0hPa | 0V | 00:00:00 | 00:00:00 | 00:00:00 | |
| LZ4TU-5 | 2026-09-02 07:51:04 | 44.25413 | 23.46479 | 159° | 22km/h | 1325m | -11.2m/s | 18.3°C | 47.1% | 0hPa | 0V | 00:00:00 | 00:00:00 | 00:00:00 | |
| LZ4TU-5 | 2026-09-02 07:50:59 | 44.25438 | 23.46468 | 167° | 20km/h | 1384m | -11.4m/s | 17.8°C | 48.6% | 0hPa | 0V | 00:00:00 | 00:00:00 | 00:00:00 | |
| LZ4TU-5 | 2026-09-02 07:50:54 | 44.25462 | 23.46463 | 172° | 18km/h | 1443m | -11.6m/s | 17.4°C | 49.5% | 0hPa | 0V | 00:00:00 | 00:00:00 | 00:00:00 | |
| LZ4TU-5 | 2026-09-02 07:50:49 | 44.25486 | 23.46456 | 176° | 16km/h | 1496m | -11.1m/s | 16.9°C | 50.4% | 0hPa | 0V | 00:00:00 | 00:00:00 | 00:00:00 | |
| LZ4TU-5 | 2026-09-02 07:50:45 | 44.25501 | 23.46454 | 171° | 15km/h | 1538m | -11.1m/s | 16.6°C | 54.0% | 0hPa | 0V | 00:00:00 | 00:00:00 | 00:00:00 | |
| LZ4TU-5 | 2026-09-02 07:50:40 | 44.25520 | 23.46448 | 168° | 15km/h | 1597m | -11.3m/s | 16.1°C | 57.8% | 0hPa | 0V | 00:00:00 | 00:00:00 | 00:00:00 | |
| LZ4TU-5 | 2026-09-02 07:50:36 | 44.25535 | 23.46443 | 166° | 15km/h | 1646m | -11.5m/s | 15.6°C | 58.5% | 0hPa | 0V | 00:00:00 | 00:00:00 | 00:00:00 | |
| LZ4TU-5 | 2026-09-02 07:50:32 | 44.25550 | 23.46435 | 163° | 16km/h | 1695m | -11.7m/s | 15.3°C | 56.8% | 0hPa | 0V | 00:00:00 | 00:00:00 | 00:00:00 | |
| LZ4TU-5 | 2026-09-02 07:50:28 | 44.25567 | 23.46427 | 161° | 18km/h | 1744m | -12.1m/s | 14.9°C | 55.1% | 0hPa | 0V | 00:00:00 | 00:00:00 | 00:00:00 | |
| LZ4TU-5 | 2026-09-02 07:50:23 | 44.25587 | 23.46417 | 157° | 20km/h | 1806m | -11.5m/s | 14.7°C | 51.1% | 0hPa | 0V | 00:00:00 | 00:00:00 | 00:00:00 | |
| LZ4TU-5 | 2026-09-02 07:50:18 | 44.25613 | 23.46403 | 159° | 20km/h | 1860m | -11.4m/s | 14.7°C | 41.1% | 0hPa | 0V | 00:00:00 | 00:00:00 | 00:00:00 | |
| LZ4TU-5 | 2026-09-02 07:50:13 | 44.25634 | 23.46387 | 154° | 20km/h | 1912m | -11.4m/s | 14.4°C | 40.2% | 0hPa | 0V | 00:00:00 | 00:00:00 | 00:00:00 | |
| LZ4TU-5 | 2026-09-02 07:50:08 | 44.25654 | 23.46373 | 154° | 18km/h | 1973m | -12.1m/s | 14.0°C | 40.6% | 0hPa | 0V | 00:00:00 | 00:00:00 | 00:00:00 | |
| LZ4TU-5 | 2026-09-02 07:50:03 | 44.25673 | 23.46359 | 153° | 16km/h | 2036m | -11.6m/s | 13.4°C | 41.4% | 0hPa | 0V | 00:00:00 | 00:00:00 | 00:00:00 | |
| LZ4TU-5 | 2026-09-02 07:49:58 | 44.25690 | 23.46345 | 154° | 15km/h | 2096m | -11.7m/s | 13.0°C | 42.0% | 0hPa | 0V | 00:00:00 | 00:00:00 | 00:00:00 | |
| LZ4TU-5 | 2026-09-02 07:49:53 | 44.25704 | 23.46334 | 157° | 11km/h | 2159m | -11.9m/s | 12.4°C | 42.7% | 0hPa | 0V | 00:00:00 | 00:00:00 | 00:00:00 | |
| LZ4TU-5 | 2026-09-02 07:49:49 | 44.25713 | 23.46328 | 149° | 7km/h | 2208m | -12.0m/s | 12.0°C | 43.5% | 0hPa | 0V | 00:00:00 | 00:00:00 | 00:00:00 | |
| LZ4TU-5 | 2026-09-02 07:49:45 | 44.25718 | 23.46323 | 125° | 5km/h | 2256m | -12.0m/s | 11.8°C | 41.6% | 0hPa | 0V | 00:00:00 | 00:00:00 | 00:00:00 | |
| LZ4TU-5 | 2026-09-02 07:49:41 | 44.25722 | 23.46319 | 97° | 5km/h | 2299m | -12.2m/s | 11.5°C | 39.9% | 0hPa | 0V | 00:00:00 | 00:00:00 | 00:00:00 | |
| LZ4TU-5 | 2026-09-02 07:49:36 | 44.25722 | 23.46306 | 86° | 7km/h | 2361m | -12.4m/s | 11.1°C | 38.5% | 0hPa | 0V | 00:00:00 | 00:00:00 | 00:00:00 | |
| LZ4TU-5 | 2026-09-02 07:49:32 | 44.25721 | 23.46294 | 92° | 11km/h | 2410m | -11.7m/s | 10.8°C | 37.8% | 0hPa | 0V | 00:00:00 | 00:00:00 | 00:00:00 | |
| LZ4TU-5 | 2026-09-02 07:49:27 | 44.25723 | 23.46270 | 95° | 15km/h | 2469m | -12.2m/s | 10.4°C | 35.6% | 0hPa | 0V | 00:00:00 | 00:00:00 | 00:00:00 | |
| LZ4TU-5 | 2026-09-02 07:49:23 | 44.25723 | 23.46245 | 88° | 18km/h | 2518m | -12.2m/s | 10.3°C | 32.0% | 0hPa | 0V | 00:00:00 | 00:00:00 | 00:00:00 | |
| LZ4TU-5 | 2026-09-02 07:49:18 | 44.25721 | 23.46212 | 82° | 18km/h | 2574m | -11.7m/s | 10.4°C | 25.0% | 0hPa | 0V | 00:00:00 | 00:00:00 | 00:00:00 | |
| LZ4TU-5 | 2026-09-02 07:49:13 | 44.25717 | 23.46183 | 76° | 16km/h | 2626m | -12.1m/s | 9.9°C | 22.9% | 0hPa | 0V | 00:00:00 | 00:00:00 | 00:00:00 | |
| LZ4TU-5 | 2026-09-02 07:49:08 | 44.25711 | 23.46158 | 79° | 13km/h | 2687m | -11.8m/s | 9.7°C | 19.3% | 0hPa | 0V | 00:00:00 | 00:00:00 | 00:00:00 | |
| LZ4TU-5 | 2026-09-02 07:49:03 | 44.25709 | 23.46136 | 86° | 15km/h | 2748m | -11.8m/s | 9.5°C | 16.5% | 0hPa | 0V | 00:00:00 | 00:00:00 | 00:00:00 | |
| LZ4TU-5 | 2026-09-02 07:48:58 | 44.25710 | 23.46111 | 98° | 15km/h | 2809m | -12.0m/s | 9.0°C | 16.6% | 0hPa | 0V | 00:00:00 | 00:00:00 | 00:00:00 | |
| LZ4TU-5 | 2026-09-02 07:48:54 | 44.25712 | 23.46090 | 104° | 16km/h | 2858m | -12.4m/s | 8.8°C | 16.7% | 0hPa | 0V | 00:00:00 | 00:00:00 | 00:00:00 | |
| LZ4TU-5 | 2026-09-02 07:48:50 | 44.25716 | 23.46066 | 107° | 18km/h | 2907m | -12.1m/s | 8.4°C | 17.1% | 0hPa | 0V | 00:00:00 | 00:00:00 | 00:00:00 | |
| LZ4TU-5 | 2026-09-02 07:48:45 | 44.25722 | 23.46033 | 110° | 20km/h | 2968m | -12.1m/s | 7.9°C | 17.6% | 0hPa | 0V | 00:00:00 | 00:00:00 | 00:00:00 | |
| LZ4TU-5 | 2026-09-02 07:48:41 | 44.25730 | 23.46004 | 111° | 22km/h | 3017m | -11.8m/s | 7.4°C | 17.9% | 0hPa | 0V | 00:00:00 | 00:00:00 | 00:00:00 | |
| LZ4TU-5 | 2026-09-02 07:48:36 | 44.25741 | 23.45968 | 105° | 22km/h | 3076m | -11.8m/s | 6.9°C | 18.1% | 0hPa | 0V | 00:00:00 | 00:00:00 | 00:00:00 | |
| LZ4TU-5 | 2026-09-02 07:48:31 | 44.25748 | 23.45928 | 101° | 22km/h | 3128m | -12.6m/s | 6.4°C | 17.9% | 0hPa | 0V | 00:00:00 | 00:00:00 | 00:00:00 | |
| LZ4TU-5 | 2026-09-02 07:48:26 | 44.25754 | 23.45889 | 106° | 24km/h | 3193m | -12.3m/s | 6.0°C | 18.2% | 0hPa | 0V | 00:00:00 | 00:00:00 | 00:00:00 | |
| LZ4TU-5 | 2026-09-02 07:48:21 | 44.25764 | 23.45847 | 109° | 27km/h | 3256m | -11.6m/s | 5.7°C | 17.7% | 0hPa | 0V | 00:00:00 | 00:00:00 | 00:00:00 | |
| LZ4TU-5 | 2026-09-02 07:48:17 | 44.25772 | 23.45814 | 110° | 27km/h | 3305m | -12.4m/s | 5.3°C | 18.6% | 0hPa | 0V | 00:00:00 | 00:00:00 | 00:00:00 | |
| LZ4TU-5 | 2026-09-02 07:48:12 | 44.25784 | 23.45769 | 112° | 27km/h | 3370m | -12.3m/s | 4.7°C | 19.9% | 0hPa | 0V | 00:00:00 | 00:00:00 | 00:00:00 | |
| LZ4TU-5 | 2026-09-02 07:48:03 | 44.25803 | 23.45687 | 111° | 27km/h | 3487m | -12.6m/s | 3.5°C | 27.4% | 0hPa | 0V | 00:00:00 | 00:00:00 | 00:00:00 | |
| LZ4TU-5 | 2026-09-02 07:47:58 | 44.25815 | 23.45642 | 111° | 27km/h | 3548m | -12.1m/s | 2.7°C | 37.4% | 0hPa | 0V | 00:00:00 | 00:00:00 | 00:00:00 | |
| LZ4TU-5 | 2026-09-02 07:47:54 | 44.25824 | 23.45604 | 113° | 27km/h | 3596m | -12.5m/s | 2.3°C | 39.2% | 0hPa | 0V | 00:00:00 | 00:00:00 | 00:00:00 | |
| LZ4TU-5 | 2026-09-02 07:47:49 | 44.25836 | 23.45562 | 114° | 26km/h | 3654m | -12.5m/s | 1.8°C | 38.2% | 0hPa | 0V | 00:00:00 | 00:00:00 | 00:00:00 | |
| LZ4TU-5 | 2026-09-02 07:47:45 | 44.25846 | 23.45530 | 112° | 26km/h | 3691m | -12.2m/s | 1.4°C | 38.8% | 0hPa | 0V | 00:00:00 | 00:00:00 | 00:00:00 | |
| LZ4TU-5 | 2026-09-02 07:47:40 | 44.25856 | 23.45487 | 106° | 27km/h | 3755m | -12.7m/s | 1.1°C | 35.6% | 0hPa | 0V | 00:00:00 | 00:00:00 | 00:00:00 | |
| LZ4TU-5 | 2026-09-02 07:47:35 | 44.25865 | 23.45440 | 104° | 27km/h | 3819m | -12.3m/s | 0.6°C | 37.4% | 0hPa | 0V | 00:00:00 | 00:00:00 | 00:00:00 | |
| LZ4TU-5 | 2026-09-02 07:47:30 | 44.25872 | 23.45393 | 102° | 27km/h | 3886m | -12.6m/s | -0.0°C | 37.1% | 0hPa | 0V | 00:00:00 | 00:00:00 | 00:00:00 | |
| LZ4TU-5 | 2026-09-02 07:47:25 | 44.25877 | 23.45347 | 99° | 27km/h | 3951m | -12.6m/s | -0.6°C | 37.0% | 0hPa | 0V | 00:00:00 | 00:00:00 | 00:00:00 | |
| LZ4TU-5 | 2026-09-02 07:47:21 | 44.25880 | 23.45309 | 100° | 27km/h | 4002m | -12.3m/s | -1.1°C | 36.7% | 0hPa | 0V | 00:00:00 | 00:00:00 | 00:00:00 | |
| LZ4TU-5 | 2026-09-02 07:47:17 | 44.25884 | 23.45272 | 102° | 26km/h | 4053m | -12.3m/s | -1.4°C | 32.5% | 0hPa | 0V | 00:00:00 | 00:00:00 | 00:00:00 | |
| LZ4TU-5 | 2026-09-02 07:47:12 | 44.25890 | 23.45227 | 105° | 27km/h | 4119m | -12.8m/s | -1.2°C | 24.5% | 0hPa | 0V | 00:00:00 | 00:00:00 | 00:00:00 | |
| LZ4TU-5 | 2026-09-02 07:47:07 | 44.25899 | 23.45176 | 106° | 33km/h | 4184m | -12.8m/s | -0.7°C | 15.7% | 0hPa | 0V | 00:00:00 | 00:00:00 | 00:00:00 | |
| LZ4TU-5 | 2026-09-02 07:47:02 | 44.25911 | 23.45115 | 106° | 37km/h | 4250m | -12.5m/s | -0.6°C | 15.4% | 0hPa | 0V | 00:00:00 | 00:00:00 | 00:00:00 | |
| LZ4TU-5 | 2026-09-02 07:46:57 | 44.25925 | 23.45050 | 107° | 40km/h | 4317m | -12.3m/s | -0.5°C | 12.2% | 0hPa | 0V | 00:00:00 | 00:00:00 | 00:00:00 | |
| LZ4TU-5 | 2026-09-02 07:46:52 | 44.25940 | 23.44978 | 106° | 42km/h | 4382m | -12.3m/s | -0.4°C | 10.7% | 0hPa | 0V | 00:00:00 | 00:00:00 | 00:00:00 | |
| LZ4TU-5 | 2026-09-02 07:46:47 | 44.25954 | 23.44911 | 107° | 40km/h | 4444m | -12.6m/s | -0.8°C | 10.8% | 0hPa | 0V | 00:00:00 | 00:00:00 | 00:00:00 | |
| LZ4TU-5 | 2026-09-02 07:46:42 | 44.25965 | 23.44842 | 105° | 40km/h | 4503m | -12.7m/s | -1.3°C | 10.4% | 0hPa | 0V | 00:00:00 | 00:00:00 | 00:00:00 | |
| LZ4TU-5 | 2026-09-02 07:46:37 | 44.25978 | 23.44772 | 103° | 42km/h | 4567m | -12.5m/s | -1.3°C | 8.8% | 0hPa | 0V | 00:00:00 | 00:00:00 | 00:00:00 | |
| LZ4TU-5 | 2026-09-02 07:46:32 | 44.25991 | 23.44700 | 106° | 44km/h | 4630m | -12.6m/s | -1.4°C | 7.8% | 0hPa | 0V | 00:00:00 | 00:00:00 | 00:00:00 | |
| LZ4TU-5 | 2026-09-02 07:46:28 | 44.26005 | 23.44640 | 108° | 46km/h | 4678m | -13.0m/s | -1.8°C | 8.8% | 0hPa | 0V | 00:00:00 | 00:00:00 | 00:00:00 | |
| LZ4TU-5 | 2026-09-02 07:46:24 | 44.26019 | 23.44581 | 108° | 46km/h | 4724m | -12.7m/s | -2.2°C | 9.1% | 0hPa | 0V | 00:00:00 | 00:00:00 | 00:00:00 | |
| LZ4TU-5 | 2026-09-02 07:46:19 | 44.26038 | 23.44503 | 109° | 46km/h | 4781m | -12.5m/s | -2.7°C | 0% | 0hPa | 0V | 00:00:00 | 00:00:00 | 00:00:00 | |
| LZ4TU-5 | 2026-09-02 07:45:07 | 44.26241 | 23.43182 | 97° | 58km/h | 5739m | -13.7m/s | -9.7°C | 20.9% | 0hPa | 0V | 00:00:00 | 00:00:00 | 00:00:00 | |
| LZ4TU-5 | 2026-09-02 07:43:49 | 44.26389 | 23.41492 | 99° | 64km/h | 6786m | -14.0m/s | -17.1°C | 34.7% | 0hPa | 0V | 00:00:00 | 00:00:00 | 00:00:00 | |
| LZ4TU-5 | 2026-09-02 07:43:44 | 44.26399 | 23.41381 | 98° | 64km/h | 6856m | -13.5m/s | -17.7°C | 34.8% | 0hPa | 0V | 00:00:00 | 00:00:00 | 00:00:00 | |
| LZ4TU-5 | 2026-09-02 07:42:31 | 44.26448 | 23.39648 | 93° | 77km/h | 7908m | -14.5m/s | -24.8°C | 17.8% | 0hPa | 0V | 00:00:00 | 00:00:00 | 00:00:00 | |
| LZ4TU-5 | 2026-09-02 07:42:26 | 44.26450 | 23.39508 | 92° | 78km/h | 7983m | -14.8m/s | -25.4°C | 17.7% | 0hPa | 0V | 00:00:00 | 00:00:00 | 00:00:00 | |
| LZ4TU-5 | 2026-09-02 07:41:14 | 44.26393 | 23.37468 | 87° | 88km/h | 9063m | -15.0m/s | -33.3°C | 20.6% | 0hPa | 0V | 00:00:00 | 00:00:00 | 00:00:00 | |
| LZ4TU-5 | 2026-09-02 07:41:09 | 44.26387 | 23.37314 | 88° | 88km/h | 9140m | -14.6m/s | -33.8°C | 19.9% | 0hPa | 0V | 00:00:00 | 00:00:00 | 00:00:00 | |
| LZ4TU-5 | 2026-09-02 07:39:55 | 44.26242 | 23.34995 | 86° | 88km/h | 10235m | -14.7m/s | -42.3°C | 16.6% | 0hPa | 0V | 00:00:00 | 00:00:00 | 00:00:00 | |
| LZ4TU-5 | 2026-09-02 07:39:51 | 44.26237 | 23.34874 | 87° | 86km/h | 10280m | -15.3m/s | -42.7°C | 0% | 0hPa | 0V | 00:00:00 | 00:00:00 | 00:00:00 | |
| LZ4TU-5 | 2026-09-02 07:38:38 | 44.25908 | 23.32490 | 75° | 104km/h | 11417m | -15.8m/s | -49.8°C | 14.2% | 0hPa | 0V | 00:00:00 | 00:00:00 | 00:00:00 | |
| LZ4TU-5 | 2026-09-02 07:38:33 | 44.25875 | 23.32311 | 78° | 108km/h | 11501m | -16.0m/s | -50.2°C | 13.9% | 0hPa | 0V | 00:00:00 | 00:00:00 | 00:00:00 | |
| LZ4TU-5 | 2026-09-02 07:37:20 | 44.25495 | 23.29568 | 85° | 110km/h | 12802m | -19.3m/s | -56.4°C | 5.9% | 0hPa | 0V | 00:00:00 | 00:00:00 | 00:00:00 | |
| LZ4TU-5 | 2026-09-02 07:37:15 | 44.25480 | 23.29382 | 82° | 106km/h | 12900m | -19.0m/s | -56.5°C | 5.2% | 0hPa | 0V | 00:00:00 | 00:00:00 | 00:00:00 | |
| LZ4TU-5 | 2026-09-02 07:36:03 | 44.25223 | 23.26935 | 87° | 86km/h | 14348m | -19.6m/s | -57.8°C | 0.0% | 0hPa | 0V | 00:00:00 | 00:00:00 | 00:00:00 | |
| LZ4TU-5 | 2026-09-02 07:35:58 | 44.25211 | 23.26784 | 82° | 84km/h | 14446m | -19.6m/s | -57.8°C | 0.0% | 0hPa | 0V | 00:00:00 | 00:00:00 | 00:00:00 | |
| LZ4TU-5 | 2026-09-02 07:34:46 | 44.25048 | 23.24949 | 70° | 69km/h | 15980m | -26.1m/s | -60.0°C | 0.0% | 0hPa | 0V | 00:00:00 | 00:00:00 | 00:00:00 | |
| LZ4TU-5 | 2026-09-02 07:34:41 | 44.25021 | 23.24833 | 74° | 68km/h | 16112m | -26.5m/s | -59.9°C | 0.0% | 0hPa | 0V | 00:00:00 | 00:00:00 | 00:00:00 | |
| LZ4TU-5 | 2026-09-02 07:33:27 | 44.24884 | 23.23686 | 81° | 40km/h | 18078m | -31.5m/s | -57.6°C | 0.0% | 0hPa | 0V | 00:00:00 | 00:00:00 | 00:00:00 | |
| LZ4TU-5 | 2026-09-02 07:33:23 | 44.24879 | 23.23637 | 93° | 31km/h | 18198m | -31.4m/s | -57.4°C | 0% | 0hPa | 0V | 00:00:00 | 00:00:00 | 00:00:00 | |
| LZ4TU-5 | 2026-09-02 07:32:10 | 44.24806 | 23.22926 | 105° | 20km/h | 20298m | -26.1m/s | -54.5°C | 0.0% | 0hPa | 0V | 00:00:00 | 00:00:00 | 00:00:00 | |
| LZ4TU-5 | 2026-09-02 07:32:05 | 44.24816 | 23.22884 | 112° | 29km/h | 20436m | -31.9m/s | -54.1°C | 0.0% | 0hPa | 0V | 00:00:00 | 00:00:00 | 00:00:00 | |
| LZ4TU-5 | 2026-09-02 07:30:53 | 44.24841 | 23.22853 | 2° | 5km/h | 22888m | -43.3m/s | -53.3°C | 0.0% | 0hPa | 0V | 00:00:00 | 00:00:00 | 00:00:00 | |
| LZ4TU-5 | 2026-09-02 07:30:48 | 44.24835 | 23.22847 | 59° | 4km/h | 23102m | -43.5m/s | -53.4°C | 0.0% | 0hPa | 0V | 00:00:00 | 00:00:00 | 00:00:00 | |
| LZ4TU-5 | 2026-09-02 07:29:35 | 44.24834 | 23.23008 | 251° | 24km/h | 25646m | 7.8m/s | -48.6°C | 0.0% | 0hPa | 0V | 00:00:00 | 00:00:00 | 00:00:00 | |
| LZ4TU-5 | 2026-09-02 07:29:30 | 44.24845 | 23.23027 | 56° | 15km/h | 25614m | 7.4m/s | -48.7°C | 0% | 0hPa | 0V | 00:00:00 | 00:00:00 | 00:00:00 | |
| LZ4TU-5 | 2026-09-02 07:28:16 | 44.24791 | 23.23257 | 218° | 18km/h | 25107m | 8.8m/s | -49.5°C | 0.0% | 0hPa | 0V | 00:00:00 | 00:00:00 | 00:00:00 | |
| LZ4TU-5 | 2026-09-02 07:28:11 | 44.24817 | 23.23286 | 225° | 20km/h | 25074m | 5.3m/s | -49.5°C | 0.0% | 0hPa | 0V | 00:00:00 | 00:00:00 | 00:00:00 | |
| LZ4TU-5 | 2026-09-02 07:26:58 | 44.24987 | 23.23325 | 0° | 0km/h | 24577m | 5.6m/s | -50.5°C | 0.0% | 0hPa | 0V | 00:00:00 | 00:00:00 | 00:00:00 | |
| LZ4TU-5 | 2026-09-02 07:26:53 | 44.24986 | 23.23347 | 271° | 15km/h | 24543m | 7.6m/s | -51.0°C | 0% | 0hPa | 0V | 00:00:00 | 00:00:00 | 00:00:00 | |
| LZ4TU-5 | 2026-09-02 07:25:40 | 44.24963 | 23.23457 | 276° | 18km/h | 24062m | 8.1m/s | -52.6°C | 0.0% | 0hPa | 0V | 00:00:00 | 00:00:00 | 00:00:00 | |
| LZ4TU-5 | 2026-09-02 07:25:35 | 44.24963 | 23.23485 | 284° | 11km/h | 24029m | 7.5m/s | -52.7°C | 0.0% | 0hPa | 0V | 00:00:00 | 00:00:00 | 00:00:00 | |
| LZ4TU-5 | 2026-09-02 07:24:22 | 44.25059 | 23.23716 | 240° | 13km/h | 23542m | 6.9m/s | -52.5°C | 0.0% | 0hPa | 0V | 00:00:00 | 00:00:00 | 00:00:00 | |
| LZ4TU-5 | 2026-09-02 07:24:17 | 44.25074 | 23.23706 | 135° | 15km/h | 23509m | 7.6m/s | -52.2°C | 0.0% | 0hPa | 0V | 00:00:00 | 00:00:00 | 00:00:00 | |
| LZ4TU-5 | 2026-09-02 07:23:04 | 44.25006 | 23.23624 | 356° | 18km/h | 23025m | 5.3m/s | -53.2°C | 0.0% | 0hPa | 0V | 00:00:00 | 00:00:00 | 00:00:00 | |
| LZ4TU-5 | 2026-09-02 07:22:59 | 44.24995 | 23.23630 | 313° | 5km/h | 22991m | 7.6m/s | -53.0°C | 0% | 0hPa | 0V | 00:00:00 | 00:00:00 | 00:00:00 | |
| LZ4TU-5 | 2026-09-02 07:21:45 | 44.24967 | 23.23815 | 342° | 9km/h | 22512m | 5.6m/s | -52.5°C | 0.0% | 0hPa | 0V | 00:00:00 | 00:00:00 | 00:00:00 | |
| LZ4TU-5 | 2026-09-02 07:21:40 | 44.24962 | 23.23823 | 304° | 18km/h | 22487m | 5.7m/s | -52.7°C | 0.0% | 0hPa | 0V | 00:00:00 | 00:00:00 | 00:00:00 | |
| LZ4TU-5 | 2026-09-02 07:20:26 | 44.24719 | 23.23886 | 310° | 20km/h | 22007m | 6.4m/s | -54.4°C | 0.0% | 0hPa | 0V | 00:00:00 | 00:00:00 | 00:00:00 | |
| LZ4TU-5 | 2026-09-02 07:20:21 | 44.24716 | 23.23922 | 284° | 31km/h | 21976m | 5.1m/s | -54.6°C | 0.0% | 0hPa | 0V | 00:00:00 | 00:00:00 | 00:00:00 | |
| LZ4TU-5 | 2026-09-02 07:18:59 | 44.24734 | 23.24401 | 245° | 13km/h | 21441m | 5.8m/s | -53.8°C | 0.0% | 0hPa | 0V | 00:00:00 | 00:00:00 | 00:00:00 | |
| LZ4TU-5 | 2026-09-02 07:18:55 | 44.24756 | 23.24403 | 182° | 26km/h | 21414m | 5.3m/s | -53.6°C | 0.0% | 0hPa | 0V | 00:00:00 | 00:00:00 | 00:00:00 | |
| LZ4TU-5 | 2026-09-02 07:17:43 | 44.24862 | 23.24287 | 108° | 9km/h | 20946m | 5.5m/s | -53.6°C | 0.0% | 0hPa | 0V | 00:00:00 | 00:00:00 | 00:00:00 | |
| LZ4TU-5 | 2026-09-02 07:17:39 | 44.24879 | 23.24275 | 131° | 22km/h | 20914m | 4.2m/s | -53.4°C | 0.0% | 0hPa | 0V | 00:00:00 | 00:00:00 | 00:00:00 | |
| LZ4TU-5 | 2026-09-02 07:16:25 | 44.25099 | 23.23876 | 103° | 44km/h | 20487m | 7.2m/s | -54.2°C | 0.0% | 0hPa | 0V | 00:00:00 | 00:00:00 | 00:00:00 | |
| LZ4TU-5 | 2026-09-02 07:16:21 | 44.25114 | 23.23827 | 114° | 29km/h | 20462m | 6.3m/s | -54.0°C | 0% | 0hPa | 0V | 00:00:00 | 00:00:00 | 00:00:00 | |
| LZ4TU-5 | 2026-09-02 07:15:07 | 44.25270 | 23.23190 | 112° | 33km/h | 20023m | 5.1m/s | -54.4°C | 0.0% | 0hPa | 0V | 00:00:00 | 00:00:00 | 00:00:00 | |
| LZ4TU-5 | 2026-09-02 07:15:03 | 44.25274 | 23.23130 | 99° | 42km/h | 19996m | 5.6m/s | -54.4°C | 0.0% | 0hPa | 0V | 00:00:00 | 00:00:00 | 00:00:00 | |
| LZ4TU-5 | 2026-09-02 07:13:50 | 44.25266 | 23.22398 | 73° | 9km/h | 19533m | 8.4m/s | -55.0°C | 0.0% | 0hPa | 0V | 00:00:00 | 00:00:00 | 00:00:00 | |
| LZ4TU-5 | 2026-09-02 07:13:45 | 44.25254 | 23.22360 | 81° | 27km/h | 19504m | 4.7m/s | -55.3°C | 0.0% | 0hPa | 0V | 00:00:00 | 00:00:00 | 00:00:00 | |
| LZ4TU-5 | 2026-09-02 07:12:31 | 44.25118 | 23.21771 | 103° | 33km/h | 19045m | 6.5m/s | -56.8°C | 0.0% | 0hPa | 0V | 00:00:00 | 00:00:00 | 00:00:00 | |
| LZ4TU-5 | 2026-09-02 07:12:27 | 44.25126 | 23.21727 | 102° | 31km/h | 19020m | 6.2m/s | -56.7°C | 0% | 0hPa | 0V | 00:00:00 | 00:00:00 | 00:00:00 | |
| LZ4TU-5 | 2026-09-02 07:11:14 | 44.24837 | 23.20794 | 59° | 46km/h | 18579m | 6.3m/s | -57.6°C | 0.0% | 0hPa | 0V | 00:00:00 | 00:00:00 | 00:00:00 | |
| LZ4TU-5 | 2026-09-02 07:11:10 | 44.24808 | 23.20757 | 26° | 33km/h | 18554m | 6.2m/s | -57.6°C | 0.0% | 0hPa | 0V | 00:00:00 | 00:00:00 | 00:00:00 | |
| LZ4TU-5 | 2026-09-02 07:07:03 | 44.24485 | 23.18319 | 123° | 35km/h | 16995m | 6.0m/s | -55.5°C | 0.0% | 0hPa | 0V | 00:00:00 | 00:00:00 | 00:00:00 | |
| LZ4TU-5 | 2026-09-02 07:06:58 | 44.24502 | 23.18254 | 101° | 33km/h | 16963m | 5.5m/s | -55.6°C | 0.0% | 0hPa | 0V | 00:00:00 | 00:00:00 | 00:00:00 | |
| LZ4TU-5 | 2026-09-02 07:02:20 | 44.23716 | 23.12240 | 96° | 71km/h | 15383m | 6.4m/s | -59.7°C | 0.8% | 0hPa | 0V | 00:00:00 | 00:00:00 | 00:00:00 | |
| LZ4TU-5 | 2026-09-02 07:02:15 | 44.23711 | 23.12119 | 87° | 69km/h | 15353m | 6.4m/s | -59.6°C | 0.8% | 0hPa | 0V | 00:00:00 | 00:00:00 | 00:00:00 | |
| LZ4TU-5 | 2026-09-02 07:00:07 | 44.23553 | 23.08799 | 84° | 86km/h | 14602m | 6.8m/s | -56.8°C | 2.5% | 0hPa | 0V | 00:00:00 | 00:00:00 | 00:00:00 | |
| LZ4TU-5 | 2026-09-02 06:58:48 | 44.23339 | 23.06630 | 86° | 89km/h | 14138m | 4.9m/s | -57.1°C | 5.1% | 0hPa | 0V | 00:00:00 | 00:00:00 | 00:00:00 | |
| LZ4TU-5 | 2026-09-02 06:58:43 | 44.23339 | 23.06463 | 86° | 86km/h | 14110m | 5.0m/s | -57.2°C | 5.4% | 0hPa | 0V | 00:00:00 | 00:00:00 | 00:00:00 | |
| LZ4TU-5 | 2026-09-02 06:57:20 | 44.23063 | 23.03807 | 78° | 111km/h | 13656m | 5.5m/s | -57.0°C | 0% | 0hPa | 0V | 00:00:00 | 00:00:00 | 00:00:00 | |
| LZ4TU-5 | 2026-09-02 06:55:55 | 44.22681 | 23.00663 | 73° | 95km/h | 13179m | 4.0m/s | -57.3°C | 11.5% | 0hPa | 0V | 00:00:00 | 00:00:00 | 00:00:00 | |
| LZ4TU-5 | 2026-09-02 06:55:50 | 44.22652 | 23.00474 | 85° | 119km/h | 13154m | 4.6m/s | -57.1°C | 11.5% | 0hPa | 0V | 00:00:00 | 00:00:00 | 00:00:00 | |
| LZ4TU-5 | 2026-09-02 06:54:19 | 44.22174 | 22.96951 | 80° | 113km/h | 12623m | 6.0m/s | -56.1°C | 14.6% | 0hPa | 0V | 00:00:00 | 00:00:00 | 00:00:00 | |
| LZ4TU-5 | 2026-09-02 06:54:14 | 44.22146 | 22.96733 | 84° | 126km/h | 12591m | 5.4m/s | -56.0°C | 14.6% | 0hPa | 0V | 00:00:00 | 00:00:00 | 00:00:00 | |
| LZ4TU-5 | 2026-09-02 06:52:55 | 44.21688 | 22.93618 | 86° | 117km/h | 12128m | 4.3m/s | -53.9°C | 15.0% | 0hPa | 0V | 00:00:00 | 00:00:00 | 00:00:00 | |
| LZ4TU-5 | 2026-09-02 06:52:50 | 44.21659 | 22.93417 | 76° | 104km/h | 12104m | 6.1m/s | -53.8°C | 0% | 0hPa | 0V | 00:00:00 | 00:00:00 | 00:00:00 |